createdAt,value
2023-02-02T04:41:16.169Z,2.28
2023-02-02T04:44:19.568Z,2.28
2023-02-02T04:47:22.531Z,1.70
2023-02-02T04:50:25.537Z,1.60
2023-02-02T04:53:29.219Z,1.63
2023-02-02T04:56:32.152Z,1.66
2023-02-02T04:59:35.209Z,1.75
2023-02-02T05:02:39.118Z,1.81
2023-02-02T05:05:41.775Z,1.90
2023-02-02T05:08:44.902Z,1.80
2023-02-02T05:11:47.544Z,1.74
2023-02-02T05:14:50.586Z,1.84
2023-02-02T05:17:53.299Z,1.91
2023-02-02T05:20:56.380Z,1.79
2023-02-02T05:23:59.759Z,1.77
2023-02-02T05:27:02.688Z,1.75
2023-02-02T05:30:06.229Z,1.69
2023-02-02T05:33:09.315Z,1.66
2023-02-02T05:36:12.145Z,1.56
2023-02-02T05:39:15.391Z,1.70
2023-02-02T05:42:18.019Z,1.54
2023-02-02T05:45:21.061Z,1.54
2023-02-02T05:48:24.032Z,1.47
2023-02-02T05:51:37.964Z,1.36
2023-02-02T05:54:40.617Z,1.46
2023-02-02T05:57:44.203Z,1.31
2023-02-02T06:00:46.904Z,1.32
2023-02-02T06:03:50.025Z,1.22
2023-02-02T06:06:52.796Z,1.49
2023-02-02T06:09:55.758Z,1.56
2023-02-02T06:12:58.584Z,1.35
2023-02-02T06:16:01.508Z,1.27
2023-02-02T06:19:05.091Z,1.48
2023-02-02T06:22:08.180Z,1.30
2023-02-02T06:25:10.746Z,1.42
2023-02-02T06:28:13.629Z,1.54
2023-02-02T06:31:19.463Z,1.58
2023-02-02T06:34:24.940Z,1.59
2023-02-02T06:37:29.650Z,1.61
2023-02-02T06:40:33.842Z,1.80
2023-02-02T06:43:36.534Z,1.94
2023-02-02T06:46:39.540Z,1.97
2023-02-02T06:49:42.828Z,2.03
2023-02-02T06:52:49.870Z,2.10
2023-02-02T06:55:57.138Z,2.24
2023-02-02T06:59:00.132Z,2.45
2023-02-02T07:02:03.197Z,2.71
2023-02-02T07:05:06.456Z,2.90
2023-02-02T07:08:09.204Z,3.00
2023-02-02T07:11:16.370Z,3.13
2023-02-02T07:14:19.444Z,3.18
2023-02-02T07:17:22.325Z,3.27
2023-02-02T07:20:25.781Z,3.39
2023-02-02T07:23:29.904Z,3.51
2023-02-02T07:26:35.250Z,3.64
2023-02-02T07:29:38.287Z,3.76
2023-02-02T07:32:46.210Z,3.88
2023-02-02T07:35:51.969Z,4.03
2023-02-02T07:38:54.760Z,4.17
2023-02-02T07:41:57.774Z,4.24
2023-02-02T07:45:27.333Z,4.38
2023-02-02T07:48:24.271Z,4.67
2023-02-02T07:51:26.920Z,4.91
2023-02-02T07:54:31.777Z,5.17
2023-02-02T07:57:34.477Z,5.31
2023-02-02T08:00:37.674Z,5.48
2023-02-02T08:03:42.908Z,5.66
2023-02-02T08:06:45.572Z,5.72
2023-02-02T08:09:48.696Z,5.76
2023-02-02T08:12:51.388Z,5.77
2023-02-02T08:15:57.863Z,5.89
2023-02-02T08:19:01.020Z,6.07
2023-02-02T08:22:04.190Z,6.23
2023-02-02T08:25:07.386Z,6.59
2023-02-02T08:28:10.345Z,6.93
2023-02-02T08:31:20.102Z,7.40
2023-02-02T08:34:25.177Z,7.72
2023-02-02T08:40:31.049Z,8.10
2023-02-02T08:43:34.319Z,8.29
2023-02-02T08:46:37.602Z,8.11
2023-02-02T08:49:42.439Z,8.23
2023-02-02T08:52:45.454Z,7.98
2023-02-02T08:55:48.701Z,7.85
2023-02-02T08:58:55.476Z,7.77
2023-02-02T09:01:58.281Z,7.65
2023-02-02T09:05:01.781Z,7.54
2023-02-02T09:08:04.665Z,7.12
2023-02-02T09:11:12.032Z,7.13
2023-02-02T09:14:15.162Z,7.12
2023-02-02T09:17:18.325Z,6.97
2023-02-02T09:20:21.181Z,7.01
2023-02-02T09:23:23.982Z,7.16
2023-02-02T09:26:28.983Z,7.04
2023-02-02T09:29:31.967Z,6.89
2023-02-02T09:32:34.800Z,6.85
2023-02-02T09:35:38.073Z,6.66
2023-02-02T09:38:41.542Z,6.46
2023-02-02T09:42:06.055Z,6.37
2023-02-02T09:45:18.940Z,6.31
2023-02-02T09:48:46.717Z,6.19
2023-02-02T09:51:56.954Z,6.16
2023-02-02T09:55:12.137Z,6.21
2023-02-02T09:58:25.042Z,6.43
2023-02-02T10:01:36.489Z,6.92
2023-02-02T10:04:43.837Z,7.11
2023-02-02T10:07:52.086Z,7.16
2023-02-02T10:10:55.197Z,7.11
2023-02-02T10:14:02.963Z,6.78
2023-02-02T10:17:37.605Z,6.66
2023-02-02T10:20:45.814Z,6.38
2023-02-02T10:23:49.078Z,6.47
2023-02-02T10:27:09.899Z,6.44
2023-02-02T10:30:19.510Z,6.37
2023-02-02T10:33:25.183Z,6.21
2023-02-02T10:36:46.408Z,6.21
2023-02-02T10:40:27.313Z,6.20
2023-02-02T10:43:47.686Z,6.18
2023-02-02T10:46:54.438Z,6.33
2023-02-02T10:50:12.293Z,6.69
2023-02-02T10:53:16.205Z,6.82
2023-02-02T10:56:37.546Z,7.02
2023-02-02T11:00:26.997Z,7.19
2023-02-02T11:03:32.617Z,7.40
2023-02-02T11:06:51.523Z,7.43
2023-02-02T11:09:54.664Z,7.68
2023-02-02T11:13:02.126Z,7.67
2023-02-02T11:16:14.443Z,7.78
2023-02-02T11:19:17.310Z,7.89
2023-02-02T11:22:29.092Z,7.92
2023-02-02T11:25:36.293Z,7.95
2023-02-02T11:28:41.100Z,8.13
2023-02-02T11:31:44.938Z,8.24
2023-02-02T11:34:48.323Z,8.37
2023-02-02T11:37:58.818Z,8.67
2023-02-02T11:41:11.000Z,9.27
2023-02-02T11:44:25.229Z,9.50
2023-02-02T11:47:31.763Z,9.53
2023-02-02T11:50:35.936Z,9.34
2023-02-02T11:53:49.058Z,8.86
2023-02-02T11:56:55.504Z,8.85
2023-02-02T12:00:26.982Z,8.83
2023-02-02T12:03:48.905Z,8.72
2023-02-02T12:06:51.802Z,8.27
2023-02-02T12:09:58.110Z,8.03
2023-02-02T12:13:07.747Z,7.70
2023-02-02T12:16:31.984Z,7.64
2023-02-02T12:19:51.129Z,7.44
2023-02-02T12:23:06.224Z,7.37
2023-02-02T12:26:16.914Z,7.22
2023-02-02T12:29:45.692Z,7.02
2023-02-02T12:33:23.949Z,7.02
2023-02-02T12:36:47.671Z,7.14
2023-02-02T12:40:12.363Z,7.01
2023-02-02T12:43:27.417Z,6.82
2023-02-02T12:47:22.714Z,6.83
2023-02-02T12:50:37.120Z,6.82
2023-02-02T12:54:34.425Z,6.84
2023-02-02T12:57:47.619Z,6.67
2023-02-02T13:01:11.689Z,6.47
2023-02-02T13:08:12.783Z,6.47
2023-02-02T13:11:32.764Z,6.46
2023-02-02T13:14:38.198Z,6.51
2023-02-02T13:17:46.694Z,6.43
2023-02-02T13:21:03.227Z,6.49
2023-02-02T13:24:12.388Z,6.44
2023-02-02T13:27:19.428Z,6.49
2023-02-02T13:30:35.180Z,6.63
2023-02-02T13:33:39.147Z,6.67
2023-02-02T13:36:46.050Z,6.72
2023-02-02T13:39:56.641Z,6.85
2023-02-02T13:43:12.613Z,6.90
2023-02-02T13:46:20.248Z,6.86
2023-02-02T13:49:34.209Z,7.12
2023-02-02T13:53:00.137Z,7.38
2023-02-02T13:56:26.518Z,7.99
2023-02-02T13:59:35.529Z,9.00
2023-02-02T14:02:49.540Z,10.34
2023-02-02T14:06:19.949Z,11.03
2023-02-02T14:09:32.813Z,13.38
2023-02-02T14:12:36.509Z,14.61
2023-02-02T14:15:43.862Z,12.19
2023-02-02T14:18:50.135Z,11.68
2023-02-02T14:22:02.167Z,10.53
2023-02-02T14:25:29.938Z,9.63
2023-02-02T14:28:44.960Z,8.86
2023-02-02T14:31:53.716Z,8.22
2023-02-02T14:35:24.693Z,7.70
2023-02-02T14:38:52.924Z,7.42
2023-02-02T14:42:49.617Z,7.26
2023-02-02T14:46:32.597Z,7.01
2023-02-02T14:49:35.798Z,7.35
2023-02-02T14:52:42.359Z,7.70
2023-02-02T14:56:06.330Z,7.82
2023-02-02T14:59:20.107Z,8.13
2023-02-02T15:02:32.698Z,8.27
2023-02-02T15:05:39.103Z,7.99
2023-02-02T15:08:41.875Z,7.33
2023-02-02T15:12:02.883Z,6.98
2023-02-02T15:15:25.513Z,6.92
2023-02-02T15:18:33.476Z,6.68
2023-02-02T15:21:40.599Z,6.44
2023-02-02T15:24:46.005Z,6.17
2023-02-02T15:28:25.963Z,6.09
2023-02-02T15:31:52.259Z,6.00
2023-02-02T15:35:01.688Z,5.75
2023-02-02T15:38:08.187Z,5.67
2023-02-02T15:41:18.698Z,5.67
2023-02-02T15:44:27.885Z,5.50
2023-02-02T15:47:37.932Z,5.49
2023-02-02T15:50:46.447Z,5.37
2023-02-02T15:53:51.832Z,5.25
2023-02-02T15:56:56.841Z,5.03
2023-02-02T16:00:02.656Z,4.94
2023-02-02T16:03:19.803Z,4.95
2023-02-02T16:06:23.113Z,4.89
2023-02-02T16:09:28.756Z,4.86
2023-02-02T16:12:32.369Z,4.62
2023-02-02T16:15:35.226Z,4.48
2023-02-02T16:18:38.178Z,4.49
2023-02-02T16:21:46.661Z,4.49
2023-02-02T16:24:54.073Z,4.57
2023-02-02T16:28:00.568Z,4.68
